createdAt,value
2022-08-01T04:35:22.689Z,0
2022-08-01T04:38:38.025Z,6
2022-08-01T04:42:03.569Z,6
2022-08-01T04:45:28.598Z,11
2022-08-01T04:48:53.994Z,11
2022-08-01T04:52:23.090Z,6
2022-08-01T04:55:45.762Z,6
2022-08-01T04:59:15.595Z,11
2022-08-01T05:02:39.986Z,11
2022-08-01T05:06:05.319Z,11
2022-08-01T05:09:31.341Z,11
2022-08-01T05:12:56.791Z,6
2022-08-01T05:16:22.144Z,6
2022-08-01T05:19:47.488Z,6
2022-08-01T05:23:17.260Z,6
2022-08-01T05:26:38.128Z,6
2022-08-01T05:30:03.461Z,6
2022-08-01T05:33:28.797Z,6
2022-08-01T05:36:57.048Z,6
2022-08-01T05:40:19.424Z,6
2022-08-01T05:43:44.762Z,6
2022-08-01T05:47:10.046Z,11
2022-08-01T05:50:35.392Z,6
2022-08-01T05:54:00.709Z,6
2022-08-01T05:57:26.049Z,11
2022-08-01T06:00:51.350Z,11
2022-08-01T06:04:16.706Z,6
2022-08-01T06:07:42.066Z,6
2022-08-01T06:11:07.403Z,6
2022-08-01T06:14:32.768Z,6
2022-08-01T06:18:13.432Z,11
2022-08-01T06:21:45.351Z,11
2022-08-01T06:25:10.676Z,17
2022-08-01T06:28:36.076Z,17
2022-08-01T06:32:01.404Z,6
2022-08-01T06:35:26.813Z,6
2022-08-01T06:38:52.147Z,11
2022-08-01T06:42:17.487Z,6
2022-08-01T06:45:42.876Z,11
2022-08-01T06:49:08.270Z,11
2022-08-01T06:52:33.694Z,17
2022-08-01T06:55:59.048Z,23
2022-08-01T06:59:24.377Z,23
2022-08-01T07:02:49.852Z,23
2022-08-01T07:06:15.284Z,39
2022-08-01T07:09:40.621Z,28
2022-08-01T07:13:05.993Z,28
2022-08-01T07:16:31.363Z,28
2022-08-01T07:19:57.782Z,39
2022-08-01T07:23:22.514Z,56
2022-08-01T07:26:52.837Z,51
2022-08-01T07:30:13.908Z,45
2022-08-01T07:33:47.835Z,39
2022-08-01T07:37:05.848Z,45
2022-08-01T07:40:32.200Z,51
2022-08-01T07:44:00.641Z,45
2022-08-01T07:47:22.976Z,45
2022-08-01T07:50:48.285Z,39
2022-08-01T07:54:13.651Z,51
2022-08-01T07:57:38.969Z,84
2022-08-01T08:01:04.315Z,84
2022-08-01T08:04:29.645Z,51
2022-08-01T08:07:54.969Z,84
2022-08-01T08:11:20.264Z,96
2022-08-01T08:14:45.630Z,62
2022-08-01T08:18:11.103Z,39
2022-08-01T08:21:36.425Z,28
2022-08-01T08:25:01.790Z,34
2022-08-01T08:28:28.271Z,28
2022-08-01T08:31:53.148Z,45
2022-08-01T08:35:23.393Z,45
2022-08-01T08:38:43.405Z,39
2022-08-01T08:42:09.105Z,39
2022-08-01T08:45:50.328Z,39
2022-08-01T08:48:59.546Z,34
2022-08-01T08:52:24.875Z,28
2022-08-01T08:55:55.282Z,17
2022-08-01T08:59:15.523Z,17
2022-08-01T09:02:40.908Z,17
2022-08-01T09:06:06.244Z,23
2022-08-01T09:09:31.599Z,11
2022-08-01T09:12:56.924Z,6
2022-08-01T09:16:22.305Z,23
2022-08-01T09:19:47.679Z,34
2022-08-01T09:23:13.025Z,45
2022-08-01T09:26:38.353Z,45
2022-08-01T09:30:03.677Z,62
2022-08-01T09:33:30.790Z,68
2022-08-01T09:37:05.720Z,79
2022-08-01T09:40:19.622Z,68
2022-08-01T09:43:44.954Z,39
2022-08-01T09:47:10.386Z,39
2022-08-01T09:50:35.609Z,39
2022-08-01T09:54:00.970Z,45
2022-08-01T09:57:26.297Z,45
2022-08-01T10:00:51.588Z,39
2022-08-01T10:04:17.091Z,28
2022-08-01T10:07:42.632Z,11
2022-08-01T10:11:07.573Z,6
2022-08-01T10:14:32.978Z,6
2022-08-01T10:17:58.323Z,6
2022-08-01T10:21:49.278Z,11
2022-08-01T10:24:49.001Z,17
2022-08-01T10:28:14.332Z,23
2022-08-01T10:31:39.700Z,23
2022-08-01T10:35:06.407Z,23
2022-08-01T10:38:30.326Z,34
2022-08-01T10:41:55.652Z,34
2022-08-01T10:45:20.984Z,34
2022-08-01T10:48:46.305Z,34
2022-08-01T10:52:11.635Z,45
2022-08-01T10:55:36.956Z,51
2022-08-01T10:59:02.283Z,45
2022-08-01T11:02:27.631Z,45
2022-08-01T11:05:52.960Z,39
2022-08-01T11:09:18.271Z,34
2022-08-01T11:12:43.933Z,28
2022-08-01T11:16:16.179Z,34
2022-08-01T11:19:34.272Z,34
2022-08-01T11:22:59.591Z,34
2022-08-01T11:26:28.675Z,39
2022-08-01T11:29:50.260Z,45
2022-08-01T11:33:15.588Z,45
2022-08-01T11:36:58.682Z,45
2022-08-01T11:40:06.222Z,56
2022-08-01T11:43:31.734Z,56
2022-08-01T11:46:56.860Z,45
2022-08-01T11:50:22.213Z,51
2022-08-01T11:53:51.675Z,56
2022-08-01T11:57:17.062Z,51
2022-08-01T12:00:43.909Z,56
2022-08-01T12:04:07.708Z,51
2022-08-01T12:07:33.158Z,51
2022-08-01T12:11:02.183Z,56
2022-08-01T12:14:23.677Z,56
2022-08-01T12:17:57.763Z,79
2022-08-01T12:21:14.327Z,118
2022-08-01T12:24:39.649Z,107
2022-08-01T12:28:04.972Z,90
2022-08-01T12:31:30.297Z,45
2022-08-01T12:34:55.643Z,90
2022-08-01T12:38:20.984Z,45
2022-08-01T12:41:46.320Z,113
2022-08-01T12:45:11.691Z,107
2022-08-01T12:48:37.056Z,84
2022-08-01T12:52:02.399Z,45
2022-08-01T12:55:33.661Z,39
2022-08-01T12:58:53.042Z,28
2022-08-01T13:02:18.362Z,39
2022-08-01T13:05:43.780Z,34
2022-08-01T13:09:09.173Z,34
2022-08-01T13:12:34.698Z,45
2022-08-01T13:16:00.358Z,34
2022-08-01T13:19:26.488Z,39
2022-08-01T13:22:52.463Z,39
2022-08-01T13:26:18.411Z,39
2022-08-01T13:29:44.414Z,84
2022-08-01T13:33:10.228Z,68
2022-08-01T13:36:36.194Z,51
2022-08-01T13:40:02.705Z,68
2022-08-01T13:43:33.065Z,39
2022-08-01T13:46:54.728Z,34
2022-08-01T13:50:20.875Z,45
2022-08-01T13:53:46.881Z,45
2022-08-01T13:57:12.975Z,34
2022-08-01T14:00:39.049Z,23
2022-08-01T14:04:05.058Z,17
2022-08-01T14:07:31.024Z,17
2022-08-01T14:10:57.096Z,17
2022-08-01T14:14:22.833Z,11
2022-08-01T14:17:48.690Z,11
2022-08-01T14:21:14.703Z,17
2022-08-01T14:24:40.926Z,17
2022-08-01T14:28:06.710Z,17
2022-08-01T15:06:27.222Z,11
2022-08-01T15:09:52.574Z,28
2022-08-01T15:13:17.903Z,34
2022-08-01T15:16:43.211Z,39
2022-08-01T15:20:08.513Z,39
2022-08-01T15:23:33.854Z,28
2022-08-01T15:26:59.205Z,28
2022-08-01T15:30:27.409Z,28
2022-08-01T15:33:49.847Z,34
2022-08-01T15:37:15.218Z,34
2022-08-01T15:40:40.568Z,34
2022-08-01T15:44:05.878Z,28
2022-08-01T15:47:31.202Z,34
2022-08-01T15:50:56.498Z,34
2022-08-01T15:54:21.830Z,23
2022-08-01T15:57:47.175Z,23
2022-08-01T16:01:12.495Z,23
2022-08-01T16:04:38.689Z,17
2022-08-01T16:08:03.175Z,17
2022-08-01T16:11:28.504Z,17
2022-08-01T16:14:53.869Z,17
2022-08-01T16:18:19.228Z,23
2022-08-01T16:21:47.587Z,23
2022-08-01T16:25:09.987Z,17
2022-08-01T16:28:35.328Z,23
2022-08-01T16:32:01.311Z,23
2022-08-01T16:35:30.742Z,17
2022-08-01T16:38:51.429Z,17
2022-08-01T16:42:16.777Z,11
2022-08-01T16:45:42.665Z,11
2022-08-01T16:49:07.670Z,11
2022-08-01T16:52:33.016Z,11
2022-08-01T16:55:58.414Z,17
2022-08-01T16:59:23.807Z,17
2022-08-01T17:02:49.211Z,23
2022-08-01T17:06:14.450Z,23
2022-08-01T17:09:43.474Z,17
2022-08-01T17:13:05.647Z,11
2022-08-01T17:16:30.955Z,11
2022-08-01T17:19:56.276Z,11
2022-08-01T17:23:21.606Z,11
2022-08-01T17:26:46.942Z,11
2022-08-01T17:30:12.280Z,11
2022-08-01T17:33:44.940Z,11
2022-08-01T17:37:03.037Z,6
2022-08-01T17:40:39.978Z,6
2022-08-01T17:43:54.019Z,6
2022-08-01T17:47:34.629Z,6
2022-08-01T17:50:44.712Z,6
2022-08-01T17:54:10.090Z,6
2022-08-01T17:57:35.508Z,6
2022-08-01T18:01:00.924Z,6
2022-08-01T18:04:26.210Z,6
2022-08-01T18:08:00.798Z,6
2022-08-01T18:11:16.868Z,6
2022-08-01T18:14:43.715Z,6
2022-08-01T18:18:07.521Z,0
2022-08-01T18:21:32.831Z,0
2022-08-01T18:24:58.145Z,0
2022-08-01T18:28:30.910Z,0
2022-08-01T18:31:48.779Z,0
2022-08-01T18:35:14.546Z,0
2022-08-01T18:38:42.513Z,0
2022-08-01T18:42:04.737Z,0
2022-08-01T18:45:30.030Z,0
2022-08-01T18:48:55.376Z,0
2022-08-01T18:52:20.688Z,0
2022-08-01T18:55:46.005Z,0
2022-08-01T18:59:11.338Z,0
2022-08-01T19:02:36.634Z,0
2022-08-01T19:06:01.944Z,0
2022-08-01T19:09:27.231Z,0
2022-08-01T19:12:52.555Z,0
2022-08-01T19:16:17.873Z,0
2022-08-01T19:19:43.181Z,0
2022-08-01T19:23:08.510Z,0
2022-08-01T19:26:33.829Z,0
2022-08-01T19:29:59.155Z,0
2022-08-01T19:33:24.481Z,0
2022-08-01T19:36:49.818Z,0
2022-08-01T19:40:26.449Z,0
2022-08-01T19:43:43.615Z,0
2022-08-01T19:47:06.049Z,0
2022-08-01T19:50:31.181Z,0
2022-08-01T19:53:56.481Z,0
2022-08-01T19:57:21.801Z,0
2022-08-01T20:00:47.107Z,0
2022-08-01T20:04:12.416Z,0
2022-08-01T20:07:37.740Z,0
2022-08-01T20:11:05.630Z,0
2022-08-01T20:14:28.387Z,0
2022-08-01T20:17:53.701Z,0
2022-08-01T20:21:20.249Z,0
2022-08-01T20:24:45.547Z,0
2022-08-01T20:28:10.976Z,0
2022-08-01T20:31:42.994Z,0
2022-08-01T20:35:01.503Z,0
2022-08-01T20:38:27.605Z,0
2022-08-01T20:41:59.430Z,0
2022-08-01T20:45:18.698Z,0
2022-08-01T20:48:42.782Z,0
2022-08-01T20:52:11.498Z,0
2022-08-01T20:55:33.421Z,0
2022-08-01T20:58:58.930Z,0
2022-08-01T21:02:24.044Z,0
2022-08-01T21:05:55.428Z,0
2022-08-01T21:09:14.658Z,0
2022-08-01T21:12:39.971Z,0
2022-08-01T21:16:23.364Z,0
2022-08-01T21:19:30.585Z,0
2022-08-01T21:22:55.889Z,0
2022-08-01T21:26:21.200Z,0
2022-08-01T21:29:46.498Z,0
2022-08-01T21:33:11.789Z,0
2022-08-01T21:36:37.151Z,0
2022-08-01T21:40:02.816Z,0
2022-08-01T21:43:27.733Z,0
2022-08-01T21:46:53.043Z,0
2022-08-01T21:50:18.352Z,0
2022-08-01T21:53:47.377Z,0
2022-08-01T21:57:08.975Z,0
2022-08-01T22:00:34.299Z,0
2022-08-01T22:03:59.594Z,0
2022-08-01T22:07:24.894Z,0
2022-08-01T22:10:50.201Z,0
2022-08-01T22:14:15.512Z,0
2022-08-01T22:17:40.839Z,0
2022-08-01T22:21:06.143Z,0
2022-08-01T22:24:31.453Z,0
2022-08-01T22:28:02.714Z,0
2022-08-01T22:31:22.084Z,0
2022-08-01T22:34:47.389Z,0
2022-08-01T22:38:12.701Z,0
2022-08-01T22:42:01.160Z,0
2022-08-01T22:45:03.361Z,0
2022-08-01T22:48:32.749Z,0
2022-08-01T22:51:55.486Z,0
2022-08-01T22:55:19.280Z,0
2022-08-01T22:58:44.592Z,0
2022-08-01T23:02:10.253Z,0
2022-08-01T23:05:35.198Z,0
2022-08-01T23:09:00.543Z,0
2022-08-01T23:12:25.849Z,0
2022-08-01T23:15:52.180Z,0
2022-08-01T23:19:16.471Z,0
2022-08-01T23:22:41.748Z,0
2022-08-01T23:26:07.064Z,0
2022-08-01T23:29:32.367Z,0
2022-08-01T23:32:57.702Z,0
2022-08-01T23:36:23.017Z,0
2022-08-01T23:39:48.337Z,0
2022-08-01T23:43:14.845Z,0
2022-08-01T23:46:38.953Z,0
2022-08-01T23:50:04.278Z,0
2022-08-01T23:53:30.821Z,0
2022-08-01T23:56:54.871Z,0
